Time;durP1;ratioP1;P1;durP2;ratioP2;P2;SDS_P1;SDS_P2;PMS_P1;PMS_P2;Temp;Humidity;BMP_temperature;BMP_pressure;BME280_temperature;BME280_humidity;BME280_pressure;Samples;Min_cycle;Max_cycle;Signal;HPM_P1;HPM_P2
2021/04/21 00:00:44;;;;;;;22.33;18.40;;;10.50;92.20;;;;;;2072659;28;20045;-71
2021/04/21 00:01:46;;;;;;;21.70;17.63;;;10.50;92.20;;;;;;2072912;28;20029;-71
2021/04/21 00:02:51;;;;;;;22.00;17.98;;;10.50;92.30;;;;;;2073391;28;20517;-70
2021/04/21 00:03:54;;;;;;;22.13;18.20;;;10.60;92.80;;;;;;2073061;28;20030;-71
2021/04/21 00:04:57;;;;;;;21.92;18.10;;;10.50;92.40;;;;;;2066839;28;20659;-70
2021/04/21 00:05:59;;;;;;;22.63;18.48;;;10.60;92.50;;;;;;2070210;28;20050;-70
2021/04/21 00:07:00;;;;;;;25.48;20.20;;;10.60;92.40;;;;;;2073126;28;20030;-71
2021/04/21 00:08:02;;;;;;;24.73;19.33;;;10.60;92.40;;;;;;2072391;28;20034;-69
2021/04/21 00:09:05;;;;;;;25.55;19.85;;;10.50;92.40;;;;;;2072623;28;20037;-70
2021/04/21 00:10:08;;;;;;;24.25;18.77;;;10.50;92.40;;;;;;2081505;28;20040;-70
2021/04/21 00:11:10;;;;;;;22.48;18.42;;;10.50;92.40;;;;;;2080953;28;20471;-70
2021/04/21 00:12:11;;;;;;;24.08;19.42;;;10.50;92.40;;;;;;2080667;28;20685;-71
2021/04/21 00:13:12;;;;;;;25.73;19.63;;;10.60;92.40;;;;;;2080852;28;20128;-71
2021/04/21 00:14:17;;;;;;;25.50;19.30;;;10.50;92.40;;;;;;2073265;28;20037;-71
2021/04/21 00:15:24;;;;;;;22.85;18.88;;;10.50;92.30;;;;;;2065302;28;20030;-71
2021/04/21 00:16:25;;;;;;;22.63;18.88;;;10.50;92.40;;;;;;2070770;28;20483;-70
2021/04/21 00:17:27;;;;;;;24.75;19.00;;;10.50;92.40;;;;;;2066502;28;20034;-70
2021/04/21 00:18:29;;;;;;;23.70;18.88;;;10.50;92.40;;;;;;2072815;28;20464;-70
2021/04/21 00:19:31;;;;;;;23.35;17.92;;;10.50;92.80;;;;;;2072932;28;20518;-71
2021/04/21 00:20:34;;;;;;;25.27;19.67;;;10.50;92.50;;;;;;2072905;28;20045;-71
2021/04/21 00:21:35;;;;;;;28.02;20.33;;;10.40;92.60;;;;;;2072357;28;20389;-71
2021/04/21 00:22:36;;;;;;;27.45;20.35;;;10.40;92.60;;;;;;2072518;28;20026;-71
2021/04/21 00:23:39;;;;;;;29.60;21.63;;;10.40;92.60;;;;;;2073028;28;20037;-70
2021/04/21 00:24:42;;;;;;;29.25;20.75;;;10.40;92.80;;;;;;2072513;28;20026;-71
2021/04/21 00:25:43;;;;;;;27.50;20.40;;;10.40;92.80;;;;;;2072641;28;20025;-71
2021/04/21 00:26:47;;;;;;;26.75;20.42;;;10.40;92.90;;;;;;2072895;28;20060;-70
2021/04/21 00:27:51;;;;;;;26.33;19.73;;;10.40;92.90;;;;;;2068165;28;20041;-70
2021/04/21 00:28:53;;;;;;;24.95;20.02;;;10.40;93.10;;;;;;2077569;28;20056;-70
2021/04/21 00:29:58;;;;;;;26.17;19.92;;;10.40;93.30;;;;;;2074507;28;20403;-70
2021/04/21 00:31:03;;;;;;;26.30;19.73;;;10.40;93.40;;;;;;2070931;28;20022;-70
2021/04/21 00:32:06;;;;;;;26.08;19.33;;;10.30;93.40;;;;;;2080272;28;20040;-71
2021/04/21 00:33:08;;;;;;;25.73;19.52;;;10.30;93.30;;;;;;2080037;28;20041;-71
2021/04/21 00:34:10;;;;;;;24.67;19.55;;;10.30;93.30;;;;;;2080259;28;20037;-71
2021/04/21 00:35:13;;;;;;;24.23;18.65;;;10.30;93.40;;;;;;2079974;28;20017;-71
2021/04/21 00:36:15;;;;;;;24.15;19.23;;;10.30;93.50;;;;;;2079827;28;20022;-70
2021/04/21 00:37:16;;;;;;;23.35;18.58;;;10.30;93.40;;;;;;2079900;28;20021;-70
2021/04/21 00:38:20;;;;;;;25.00;19.52;;;10.30;93.50;;;;;;2071508;28;20038;-71
2021/04/21 00:39:22;;;;;;;22.55;18.38;;;10.30;93.40;;;;;;2064266;28;20030;-70
2021/04/21 00:40:50;;;;;;;22.98;17.80;;;10.30;93.40;;;;;;2073716;28;20032;-70
2021/04/21 00:42:05;;;;;;;23.15;18.15;;;10.30;93.30;;;;;;2071878;28;20367;-70
2021/04/21 00:43:23;;;;;;;23.42;18.88;;;10.30;93.30;;;;;;2062994;28;20029;-70
2021/04/21 00:44:51;;;;;;;24.88;18.33;;;10.30;93.40;;;;;;2066222;28;20097;-70
2021/04/21 00:46:17;;;;;;;24.30;19.20;;;10.30;93.40;;;;;;2072256;28;20050;-70
2021/04/21 00:47:45;;;;;;;28.20;20.05;;;10.30;93.40;;;;;;2072180;28;20191;-69
2021/04/21 00:49:20;;;;;;;34.47;23.52;;;10.30;93.40;;;;;;2068313;28;20117;-70
2021/04/21 00:50:27;;;;;;;42.70;27.15;;;10.30;93.40;;;;;;2057233;28;20037;-69
2021/04/21 00:51:50;;;;;;;40.13;26.20;;;10.20;93.40;;;;;;2072006;28;20022;-70
2021/04/21 00:52:57;;;;;;;41.22;26.42;;;10.20;93.30;;;;;;2064148;28;20029;-70
2021/04/21 00:54:06;;;;;;;37.60;25.25;;;10.20;93.30;;;;;;2079548;28;20817;-69
2021/04/21 00:55:15;;;;;;;33.83;23.48;;;10.20;93.40;;;;;;2071461;28;20018;-70
2021/04/21 00:56:28;;;;;;;30.63;21.85;;;10.20;93.80;;;;;;2064440;28;20033;-70
2021/04/21 00:58:04;;;;;;;31.08;21.48;;;10.20;93.50;;;;;;2072006;28;20018;-70
2021/04/21 00:59:44;;;;;;;28.33;20.83;;;10.10;93.60;;;;;;2071876;28;20514;-69
2021/04/21 01:00:47;;;;;;;26.88;20.60;;;10.10;93.60;;;;;;2035845;29;20043;-70
2021/04/21 01:01:49;;;;;;;27.00;20.80;;;10.00;93.70;;;;;;2041701;28;20055;-70
2021/04/21 01:03:03;;;;;;;25.63;19.85;;;10.00;93.80;;;;;;2076925;28;20481;-70
2021/04/21 01:04:06;;;;;;;26.35;20.67;;;10.00;93.80;;;;;;2078313;28;20025;-70
2021/04/21 01:05:14;;;;;;;28.55;21.20;;;9.90;93.90;;;;;;2079587;28;20108;-70
2021/04/21 01:06:17;;;;;;;28.88;21.52;;;9.90;94.40;;;;;;2071040;28;20049;-69
2021/04/21 01:07:19;;;;;;;28.08;21.60;;;9.90;94.20;;;;;;2056511;28;20546;-70
2021/04/21 01:08:29;;;;;;;29.42;21.88;;;9.90;94.20;;;;;;2064374;28;20022;-70
2021/04/21 01:09:31;;;;;;;32.08;23.92;;;9.80;94.30;;;;;;2070155;28;20751;-70
2021/04/21 01:10:41;;;;;;;31.08;22.27;;;9.80;94.40;;;;;;2066889;28;20109;-70
2021/04/21 01:11:53;;;;;;;33.03;23.85;;;9.80;94.40;;;;;;2072381;28;20021;-70
2021/04/21 01:12:59;;;;;;;32.03;22.80;;;9.70;94.50;;;;;;2072962;28;20056;-70
2021/04/21 01:14:12;;;;;;;32.20;22.75;;;9.70;94.60;;;;;;2072426;28;20143;-70
2021/04/21 01:15:16;;;;;;;31.48;23.20;;;9.70;94.90;;;;;;2064300;28;20034;-70
2021/04/21 01:16:24;;;;;;;32.90;23.98;;;9.60;94.90;;;;;;2071994;28;20119;-71
2021/04/21 01:17:26;;;;;;;31.95;23.13;;;9.60;95.10;;;;;;2065974;28;20033;-70
2021/04/21 01:18:30;;;;;;;33.55;22.63;;;9.60;95.10;;;;;;2072910;28;20029;-70
2021/04/21 01:19:43;;;;;;;30.65;22.02;;;9.60;95.20;;;;;;2072199;28;20418;-70
2021/04/21 01:20:54;;;;;;;30.75;22.77;;;9.50;95.30;;;;;;2073546;28;20029;-70
2021/04/21 01:22:08;;;;;;;30.13;22.67;;;9.50;95.40;;;;;;2078864;28;20457;-71
2021/04/21 01:23:44;;;;;;;37.15;25.15;;;9.50;95.40;;;;;;2064259;28;20034;-70
2021/04/21 01:24:52;;;;;;;38.15;25.20;;;9.50;95.50;;;;;;2068405;28;20034;-70
2021/04/21 01:26:09;;;;;;;33.15;23.45;;;9.40;95.60;;;;;;2072215;28;20493;-70
2021/04/21 01:27:16;;;;;;;31.13;23.23;;;9.40;95.70;;;;;;2064755;28;20093;-69
2021/04/21 01:28:23;;;;;;;30.98;23.10;;;9.30;95.80;;;;;;2065049;28;20030;-70
2021/04/21 01:29:37;;;;;;;40.47;25.30;;;9.30;96.00;;;;;;2072803;28;20034;-70
2021/04/21 01:30:42;;;;;;;41.90;27.05;;;9.30;96.00;;;;;;2069038;28;20038;-70
2021/04/21 01:31:45;;;;;;;44.88;27.90;;;9.30;96.10;;;;;;2068650;28;20033;-70
2021/04/21 01:32:52;;;;;;;40.95;27.40;;;9.30;96.20;;;;;;2071926;28;20030;-69
2021/04/21 01:33:55;;;;;;;43.22;26.75;;;9.20;96.20;;;;;;2066463;28;20467;-69
2021/04/21 01:34:57;;;;;;;43.17;27.48;;;9.20;96.30;;;;;;2064327;28;20100;-70
2021/04/21 01:36:06;;;;;;;40.40;27.08;;;9.20;96.40;;;;;;2077379;28;20033;-70
2021/04/21 01:37:08;;;;;;;42.80;27.95;;;9.20;96.40;;;;;;2071715;28;20044;-70
2021/04/21 01:38:09;;;;;;;42.00;27.88;;;9.10;96.50;;;;;;2071674;28;20030;-70
2021/04/21 01:39:11;;;;;;;41.08;27.00;;;9.10;96.60;;;;;;2072648;28;20049;-70
2021/04/21 01:40:34;;;;;;;41.13;27.65;;;9.10;96.70;;;;;;2064504;28;20510;-70
2021/04/21 01:41:39;;;;;;;36.90;25.10;;;9.10;96.80;;;;;;2071907;28;20037;-70
2021/04/21 01:42:44;;;;;;;40.42;25.88;;;9.00;96.90;;;;;;2080232;28;20018;-71
2021/04/21 01:43:50;;;;;;;36.03;24.52;;;9.00;96.90;;;;;;2079599;28;20406;-70
2021/04/21 01:44:52;;;;;;;32.38;23.83;;;9.00;97.00;;;;;;2067130;28;20026;-70
2021/04/21 01:45:57;;;;;;;32.45;23.92;;;8.90;97.10;;;;;;2069646;28;20026;-70
2021/04/21 01:47:05;;;;;;;34.30;24.42;;;8.90;97.20;;;;;;2072762;28;20041;-71
2021/04/21 01:48:15;;;;;;;31.73;23.42;;;8.90;97.30;;;;;;2064863;28;20026;-70
2021/04/21 01:49:22;;;;;;;30.75;23.52;;;8.90;97.40;;;;;;2073016;28;20532;-70
2021/04/21 01:50:22;;;;;;;32.05;23.08;;;8.80;97.40;;;;;;2080031;28;20501;-70
2021/04/21 01:51:32;;;;;;;32.95;24.23;;;8.80;97.50;;;;;;2078607;28;20036;-71
2021/04/21 01:52:49;;;;;;;33.08;24.30;;;8.80;97.60;;;;;;2069245;28;20552;-70
2021/04/21 01:54:11;;;;;;;30.23;23.63;;;8.80;97.60;;;;;;2063713;28;20030;-70
2021/04/21 01:55:23;;;;;;;31.88;24.00;;;8.80;97.70;;;;;;2071898;28;20036;-73
2021/04/21 01:56:42;;;;;;;32.30;23.95;;;8.80;97.70;;;;;;2064568;28;20034;-70
2021/04/21 01:58:03;;;;;;;31.60;23.63;;;8.70;97.70;;;;;;2071774;28;20121;-72
2021/04/21 01:59:41;;;;;;;32.60;23.92;;;8.70;97.80;;;;;;2072239;28;20386;-70
2021/04/21 02:00:46;;;;;;;31.48;23.75;;;8.60;97.90;;;;;;2068465;28;20129;-71
2021/04/21 02:02:08;;;;;;;28.30;23.17;;;8.70;98.00;;;;;;2068742;28;20018;-70
2021/04/21 02:03:37;;;;;;;30.85;23.35;;;8.60;98.00;;;;;;2072307;28;20033;-70
2021/04/21 02:04:50;;;;;;;31.42;24.00;;;8.60;98.00;;;;;;2068197;28;20048;-72
2021/04/21 02:06:27;;;;;;;32.45;24.15;;;8.60;98.10;;;;;;2071829;28;20030;-72
2021/04/21 02:07:49;;;;;;;35.40;25.52;;;8.60;98.10;;;;;;2072234;28;20022;-72
2021/04/21 02:09:04;;;;;;;36.55;24.70;;;8.60;98.30;;;;;;2071523;28;20033;-71
2021/04/21 02:10:20;;;;;;;37.15;25.33;;;8.50;98.30;;;;;;2069821;28;20099;-71
2021/04/21 02:11:24;;;;;;;36.90;25.88;;;8.50;98.30;;;;;;2065137;28;20405;-71
2021/04/21 02:12:48;;;;;;;40.97;28.10;;;8.50;98.40;;;;;;2072012;28;20076;-71
2021/04/21 02:14:11;;;;;;;37.17;25.88;;;8.50;98.50;;;;;;2071525;28;20068;-71
2021/04/21 02:15:18;;;;;;;39.67;25.65;;;8.50;98.50;;;;;;2068835;28;20081;-71
2021/04/21 02:16:35;;;;;;;39.08;26.90;;;8.50;98.50;;;;;;2063760;28;20030;-71
2021/04/21 02:17:44;;;;;;;41.45;27.20;;;8.50;98.60;;;;;;2071667;28;20112;-71
2021/04/21 02:18:57;;;;;;;44.97;28.42;;;8.40;98.60;;;;;;2072101;28;20382;-71
2021/04/21 02:20:14;;;;;;;46.10;28.08;;;8.40;98.60;;;;;;2072081;28;20030;-70
2021/04/21 02:21:45;;;;;;;47.90;29.13;;;8.40;98.60;;;;;;2064437;28;20097;-70
2021/04/21 02:23:16;;;;;;;48.50;30.13;;;8.40;98.80;;;;;;2065130;28;20591;-71
2021/04/21 02:24:34;;;;;;;41.45;28.38;;;8.40;98.80;;;;;;2072129;28;20025;-70
2021/04/21 02:25:50;;;;;;;41.53;28.52;;;8.40;98.80;;;;;;2066915;28;20033;-70
2021/04/21 02:27:10;;;;;;;38.42;27.17;;;8.40;98.80;;;;;;2071974;28;20037;-71
2021/04/21 02:28:25;;;;;;;39.15;28.00;;;8.40;98.80;;;;;;2072051;28;20030;-71
2021/04/21 02:29:35;;;;;;;39.35;27.35;;;8.30;98.80;;;;;;2072029;28;20126;-71
2021/04/21 02:30:45;;;;;;;39.33;27.38;;;8.30;98.80;;;;;;2072169;28;20042;-71
2021/04/21 02:32:09;;;;;;;36.72;26.00;;;8.30;98.90;;;;;;2067739;28;20031;-72
2021/04/21 02:33:26;;;;;;;36.63;25.88;;;8.30;98.90;;;;;;2071639;28;20120;-71
2021/04/21 02:34:47;;;;;;;36.78;26.58;;;8.30;99.00;;;;;;2072429;28;20021;-71
2021/04/21 02:35:57;;;;;;;36.60;26.23;;;8.20;99.00;;;;;;2068572;28;20038;-70
2021/04/21 02:37:18;;;;;;;36.85;25.63;;;8.30;99.00;;;;;;2071594;28;20077;-71
2021/04/21 02:38:29;;;;;;;38.83;26.63;;;8.30;99.00;;;;;;2072830;28;20042;-72
2021/04/21 02:39:59;;;;;;;36.58;26.38;;;8.20;99.00;;;;;;2067096;28;20030;-71
2021/04/21 02:41:06;;;;;;;36.10;26.15;;;8.20;99.10;;;;;;2073250;28;20493;-71
2021/04/21 02:42:13;;;;;;;35.30;25.73;;;8.20;99.10;;;;;;2073635;28;20117;-71
2021/04/21 02:43:24;;;;;;;34.38;26.75;;;8.20;99.10;;;;;;2073627;28;20112;-71
2021/04/21 02:44:44;;;;;;;;;;;8.20;99.10;;;;;;2073964;28;20109;-71
2021/04/21 02:46:02;;;;;;;36.60;25.98;;;8.10;99.10;;;;;;2072723;28;19940;-71
2021/04/21 02:47:24;;;;;;;34.70;25.30;;;8.10;99.10;;;;;;2073212;28;20492;-71
2021/04/21 02:48:34;;;;;;;34.95;25.30;;;8.10;99.10;;;;;;2073589;28;20454;-71
2021/04/21 02:49:54;;;;;;;33.97;25.55;;;8.10;99.20;;;;;;2073646;28;20528;-71
2021/04/21 02:51:13;;;;;;;32.88;25.20;;;8.10;99.30;;;;;;2073725;28;20087;-71
2021/04/21 02:52:30;;;;;;;37.70;26.83;;;8.00;99.30;;;;;;2081046;28;20104;-71
2021/04/21 02:53:51;;;;;;;33.95;26.00;;;8.00;99.30;;;;;;2075409;28;20042;-70
2021/04/21 02:55:18;;;;;;;34.65;26.60;;;8.00;99.30;;;;;;2072777;28;20121;-71
2021/04/21 02:56:37;;;;;;;35.95;26.67;;;8.00;99.40;;;;;;2065461;28;20089;-70
2021/04/21 02:57:54;;;;;;;38.38;28.48;;;7.90;99.40;;;;;;2073395;28;20044;-71
2021/04/21 02:59:20;;;;;;;36.13;28.02;;;7.90;99.50;;;;;;2081030;28;19913;-71
2021/04/21 03:00:49;;;;;;;37.95;28.23;;;7.90;99.60;;;;;;2077440;28;20494;-71
2021/04/21 03:02:08;;;;;;;40.00;30.13;;;7.90;99.70;;;;;;2073459;28;20076;-70
2021/04/21 03:03:36;;;;;;;44.42;32.55;;;7.90;99.70;;;;;;2073473;28;20042;-70
2021/04/21 03:04:42;;;;;;;53.97;37.70;;;7.80;99.60;;;;;;2072866;28;20022;-70
2021/04/21 03:05:50;;;;;;;50.78;36.72;;;7.80;99.70;;;;;;2072624;28;20029;-71
2021/04/21 03:06:51;;;;;;;62.13;45.17;;;7.80;99.70;;;;;;2073488;28;20393;-71
2021/04/21 03:08:17;;;;;;;68.57;50.55;;;7.80;99.70;;;;;;2073345;28;20030;-70
2021/04/21 03:09:24;;;;;;;72.40;51.10;;;7.80;99.70;;;;;;2073511;28;20034;-71
2021/04/21 03:10:31;;;;;;;86.70;63.72;;;7.70;99.70;;;;;;2073437;28;20034;-71
2021/04/21 03:11:32;;;;;;;80.93;59.10;;;7.70;99.70;;;;;;2073434;28;20099;-70
2021/04/21 03:12:34;;;;;;;86.03;63.13;;;7.70;99.70;;;;;;2072661;28;21247;-70
2021/04/21 03:13:40;;;;;;;89.85;65.75;;;7.70;99.90;;;;;;2072673;28;20038;-71
2021/04/21 03:14:45;;;;;;;105.55;76.25;;;7.70;99.80;;;;;;2081035;28;20079;-70
2021/04/21 03:15:55;;;;;;;109.00;79.57;;;7.70;99.90;;;;;;2080597;28;20029;-71
2021/04/21 03:16:58;;;;;;;106.55;76.65;;;7.70;99.90;;;;;;2079808;28;20029;-71
2021/04/21 03:17:59;;;;;;;109.47;81.07;;;7.70;99.80;;;;;;2073050;28;20042;-71
2021/04/21 03:19:06;;;;;;;112.72;84.05;;;7.70;99.90;;;;;;2073274;28;20028;-71
2021/04/21 03:20:16;;;;;;;115.88;86.15;;;7.60;99.90;;;;;;2073424;28;20104;-70
2021/04/21 03:21:28;;;;;;;129.45;93.10;;;7.60;99.90;;;;;;2065441;28;20027;-70
2021/04/21 03:22:31;;;;;;;120.15;88.70;;;7.60;99.90;;;;;;2074182;28;20482;-71
2021/04/21 03:23:35;;;;;;;123.80;90.60;;;7.60;99.90;;;;;;2080668;28;20033;-71
2021/04/21 03:24:38;;;;;;;123.88;89.80;;;7.60;99.90;;;;;;2072183;28;20697;-70
2021/04/21 03:25:41;;;;;;;123.47;90.97;;;7.60;99.90;;;;;;2072627;28;20022;-71
2021/04/21 03:26:46;;;;;;;116.43;86.03;;;7.60;99.90;;;;;;2073381;28;20038;-70
2021/04/21 03:27:52;;;;;;;111.00;80.90;;;7.60;99.90;;;;;;2073160;28;20068;-70
2021/04/21 03:28:57;;;;;;;101.10;74.20;;;7.50;99.90;;;;;;2073282;28;20539;-70
2021/04/21 03:30:03;;;;;;;98.55;71.75;;;7.50;99.90;;;;;;2073234;28;20405;-70
2021/04/21 03:31:06;;;;;;;102.25;71.13;;;7.50;99.90;;;;;;2072517;28;20029;-70
2021/04/21 03:32:28;;;;;;;100.15;71.70;;;7.50;99.90;;;;;;2072512;28;20084;-71
2021/04/21 03:33:45;;;;;;;93.93;66.55;;;7.50;99.90;;;;;;2080807;28;20041;-70
2021/04/21 03:34:47;;;;;;;90.78;64.55;;;7.50;99.90;;;;;;2080792;28;20029;-70
2021/04/21 03:35:51;;;;;;;87.25;62.25;;;7.50;99.90;;;;;;2072123;28;20171;-70
2021/04/21 03:36:53;;;;;;;83.03;58.67;;;7.40;99.90;;;;;;2072433;28;20061;-71
2021/04/21 03:38:02;;;;;;;77.28;55.17;;;7.40;99.90;;;;;;2072368;28;20018;-70
2021/04/21 03:39:04;;;;;;;71.15;51.47;;;7.40;99.90;;;;;;2072540;28;20112;-71
2021/04/21 03:40:06;;;;;;;68.85;49.50;;;7.40;99.90;;;;;;2073143;28;20478;-71
2021/04/21 03:41:06;;;;;;;67.30;48.53;;;7.40;99.90;;;;;;2073169;28;20378;-70
2021/04/21 03:42:07;;;;;;;60.80;45.03;;;7.40;99.90;;;;;;2073001;28;20064;-71
2021/04/21 03:43:09;;;;;;;59.60;43.80;;;7.40;99.90;;;;;;2073361;28;20022;-71
2021/04/21 03:44:11;;;;;;;59.30;42.97;;;7.40;99.90;;;;;;2073015;28;20038;-71
2021/04/21 03:45:13;;;;;;;58.88;42.30;;;7.40;99.90;;;;;;2072990;28;20156;-71
2021/04/21 03:46:15;;;;;;;56.03;40.53;;;7.40;99.90;;;;;;2079296;28;20030;-71
2021/04/21 03:47:17;;;;;;;63.45;43.33;;;7.40;99.90;;;;;;2080456;28;20108;-71
2021/04/21 03:48:18;;;;;;;58.28;42.20;;;7.40;99.90;;;;;;2073067;28;20117;-71
2021/04/21 03:49:19;;;;;;;58.22;41.72;;;7.40;99.90;;;;;;2080442;28;20079;-70
2021/04/21 03:50:21;;;;;;;59.42;41.28;;;7.40;99.90;;;;;;2080535;28;20080;-70
2021/04/21 03:51:23;;;;;;;55.90;40.05;;;7.30;99.90;;;;;;2072946;28;20040;-70
2021/04/21 03:52:26;;;;;;;52.83;38.35;;;7.30;99.90;;;;;;2072977;28;20034;-70
2021/04/21 03:53:32;;;;;;;53.33;39.03;;;7.30;99.90;;;;;;2073170;28;20038;-70
2021/04/21 03:54:34;;;;;;;56.08;40.03;;;7.30;99.90;;;;;;2072798;28;20037;-70
2021/04/21 03:55:37;;;;;;;51.90;37.72;;;7.30;99.90;;;;;;2080695;28;20033;-70
2021/04/21 03:56:42;;;;;;;55.55;38.45;;;7.30;99.90;;;;;;2080475;28;20041;-70
2021/04/21 03:57:47;;;;;;;49.00;35.53;;;7.30;99.90;;;;;;2072491;28;20065;-70
2021/04/21 03:58:49;;;;;;;47.90;34.65;;;7.30;99.90;;;;;;2067922;28;20615;-70
2021/04/21 03:59:52;;;;;;;46.20;33.72;;;7.30;99.90;;;;;;2065329;28;20034;-70
2021/04/21 04:01:07;;;;;;;46.08;34.42;;;7.30;99.90;;;;;;2070713;28;20050;-70
2021/04/21 04:02:11;;;;;;;44.90;32.30;;;7.30;99.90;;;;;;2066354;28;20038;-70
2021/04/21 04:03:19;;;;;;;44.03;32.63;;;7.30;99.90;;;;;;2065261;28;20018;-70
2021/04/21 04:04:21;;;;;;;43.08;31.42;;;7.30;99.90;;;;;;2065899;28;20029;-72
2021/04/21 04:05:43;;;;;;;43.05;31.63;;;7.30;99.90;;;;;;2072068;28;20034;-70
2021/04/21 04:06:51;;;;;;;41.38;30.27;;;7.30;99.90;;;;;;2065161;28;20534;-70
2021/04/21 04:07:56;;;;;;;39.63;29.15;;;7.30;99.90;;;;;;2064983;28;20052;-70
2021/04/21 04:09:20;;;;;;;40.80;29.30;;;7.30;99.90;;;;;;2062101;28;20084;-70
2021/04/21 04:10:23;;;;;;;37.92;27.65;;;7.30;99.90;;;;;;2065827;28;20041;-69
2021/04/21 04:11:31;;;;;;;40.38;27.17;;;7.30;99.90;;;;;;2072998;28;20026;-70
2021/04/21 04:12:36;;;;;;;36.90;27.45;;;7.30;99.90;;;;;;2073054;28;20026;-70
2021/04/21 04:13:41;;;;;;;37.60;26.95;;;7.30;99.90;;;;;;2069887;28;20513;-69
2021/04/21 04:14:41;;;;;;;36.10;27.50;;;7.30;99.90;;;;;;2068064;28;20061;-70
2021/04/21 04:15:42;;;;;;;35.97;27.80;;;7.30;99.90;;;;;;2068204;28;20088;-70
2021/04/21 04:16:45;;;;;;;37.47;28.17;;;7.30;99.90;;;;;;2072398;28;20482;-70
2021/04/21 04:17:48;;;;;;;38.80;27.17;;;7.30;99.90;;;;;;2076398;28;20030;-70
2021/04/21 04:18:51;;;;;;;37.35;27.17;;;7.30;99.90;;;;;;2064166;28;20026;-70
2021/04/21 04:19:53;;;;;;;34.22;26.48;;;7.30;99.90;;;;;;2064590;28;20030;-70
2021/04/21 04:20:56;;;;;;;36.75;26.80;;;7.30;99.90;;;;;;2066633;28;20026;-70
2021/04/21 04:22:07;;;;;;;34.17;25.75;;;7.30;99.90;;;;;;2070103;28;20026;-70
2021/04/21 04:23:10;;;;;;;33.90;25.88;;;7.40;99.90;;;;;;2072960;28;20042;-70
2021/04/21 04:24:14;;;;;;;35.05;26.67;;;7.40;99.90;;;;;;2065194;28;20489;-70
2021/04/21 04:25:16;;;;;;;34.55;25.50;;;7.40;99.80;;;;;;2072384;28;20025;-70
2021/04/21 04:26:18;;;;;;;33.45;25.52;;;7.40;99.80;;;;;;2064960;28;20033;-70
2021/04/21 04:27:26;;;;;;;33.13;25.02;;;7.40;99.70;;;;;;2072884;28;20022;-70
2021/04/21 04:28:29;;;;;;;35.45;25.50;;;7.40;99.70;;;;;;2078729;28;20100;-70
2021/04/21 04:29:30;;;;;;;35.33;26.17;;;7.40;99.60;;;;;;2074135;28;20559;-69
2021/04/21 04:30:32;;;;;;;33.97;25.17;;;7.50;99.60;;;;;;2072872;28;20018;-69
2021/04/21 04:31:37;;;;;;;37.88;25.60;;;7.50;99.50;;;;;;2070266;28;20038;-70
2021/04/21 04:32:43;;;;;;;33.83;25.52;;;7.50;99.40;;;;;;2075533;28;20118;-70
2021/04/21 04:33:46;;;;;;;34.75;25.27;;;7.50;99.30;;;;;;2079667;28;20029;-70
2021/04/21 04:34:49;;;;;;;35.00;25.10;;;7.50;99.20;;;;;;2067648;28;20194;-70
2021/04/21 04:35:51;;;;;;;31.92;24.33;;;7.60;99.20;;;;;;2068874;28;20025;-70
2021/04/21 04:36:52;;;;;;;34.28;24.90;;;7.60;99.10;;;;;;2072223;28;20034;-69
2021/04/21 04:37:57;;;;;;;34.35;25.05;;;7.60;99.00;;;;;;2072157;28;20068;-70
2021/04/21 04:39:00;;;;;;;33.42;25.35;;;7.70;98.90;;;;;;2072911;28;20029;-70
2021/04/21 04:40:02;;;;;;;33.25;25.27;;;7.70;98.80;;;;;;2072939;28;20026;-69
2021/04/21 04:41:03;;;;;;;34.25;24.85;;;7.70;98.70;;;;;;2073464;28;20392;-69
2021/04/21 04:42:05;;;;;;;31.33;24.27;;;7.70;98.70;;;;;;2079243;28;20119;-70
2021/04/21 04:43:09;;;;;;;31.65;24.45;;;7.70;98.60;;;;;;2065570;28;20541;-70
2021/04/21 04:44:11;;;;;;;33.08;24.30;;;7.70;98.50;;;;;;2072330;28;20044;-70
2021/04/21 04:45:12;;;;;;;34.00;24.77;;;7.80;98.50;;;;;;2072701;28;20465;-70
2021/04/21 04:46:16;;;;;;;34.30;24.75;;;7.80;98.50;;;;;;2064447;28;20023;-70
2021/04/21 04:47:24;;;;;;;35.05;24.52;;;7.90;98.40;;;;;;2079764;28;20017;-70
2021/04/21 04:48:35;;;;;;;31.90;24.13;;;7.90;98.70;;;;;;2073078;28;20052;-70
2021/04/21 04:49:55;;;;;;;32.45;24.73;;;8.00;98.20;;;;;;2077288;28;20501;-70
2021/04/21 04:51:00;;;;;;;33.83;24.08;;;8.10;98.00;;;;;;2072478;28;20041;-70
2021/04/21 04:52:04;;;;;;;33.63;23.85;;;8.20;97.80;;;;;;2072672;28;20041;-70
2021/04/21 04:53:07;;;;;;;33.35;23.90;;;8.30;97.90;;;;;;2072664;28;20430;-70
2021/04/21 04:54:09;;;;;;;31.83;23.35;;;8.40;97.40;;;;;;2072618;28;20033;-70
2021/04/21 04:55:15;;;;;;;31.13;24.02;;;8.50;97.20;;;;;;2079827;28;20129;-70
2021/04/21 04:56:17;;;;;;;30.05;22.52;;;8.60;96.90;;;;;;2071519;28;20041;-70
2021/04/21 04:57:19;;;;;;;31.60;22.58;;;8.80;96.60;;;;;;2072561;28;20053;-70
2021/04/21 04:58:20;;;;;;;29.60;22.90;;;8.90;96.30;;;;;;2072595;28;20062;-71
2021/04/21 04:59:27;;;;;;;32.40;22.88;;;9.00;95.90;;;;;;2071907;28;20059;-70
2021/04/21 05:00:28;;;;;;;34.35;23.67;;;9.10;95.60;;;;;;2072460;28;20037;-70
2021/04/21 05:01:40;;;;;;;28.13;22.10;;;9.20;95.30;;;;;;2074349;28;20046;-70
2021/04/21 05:02:53;;;;;;;31.60;23.50;;;9.30;94.90;;;;;;2073127;28;20029;-71
2021/04/21 05:03:56;;;;;;;32.22;22.83;;;9.30;94.20;;;;;;2067051;28;20088;-70
2021/04/21 05:04:58;;;;;;;30.25;23.02;;;9.50;94.20;;;;;;2070519;28;20072;-70
2021/04/21 05:06:02;;;;;;;31.40;23.05;;;9.60;94.00;;;;;;2071433;28;20034;-70
2021/04/21 05:07:05;;;;;;;31.95;23.70;;;9.80;93.50;;;;;;2071285;28;20355;-71
2021/04/21 05:08:10;;;;;;;29.48;21.83;;;10.00;92.90;;;;;;2071475;28;20541;-71
2021/04/21 05:09:15;;;;;;;30.98;22.75;;;10.30;92.30;;;;;;2072428;28;20037;-71
2021/04/21 05:10:33;;;;;;;30.25;23.40;;;10.50;91.80;;;;;;2072585;28;20025;-70
2021/04/21 05:11:38;;;;;;;29.15;21.08;;;10.70;91.10;;;;;;2072424;28;20087;-70
2021/04/21 05:12:42;;;;;;;29.30;21.98;;;11.00;90.50;;;;;;2072607;28;20034;-70
2021/04/21 05:13:48;;;;;;;28.73;21.10;;;11.20;89.20;;;;;;2072315;28;20040;-70
2021/04/21 05:14:53;;;;;;;25.70;20.48;;;11.40;88.70;;;;;;2072732;28;20058;-71
2021/04/21 05:15:54;;;;;;;27.08;20.95;;;11.70;87.50;;;;;;2072128;28;20501;-71
2021/04/21 05:17:13;;;;;;;27.67;20.33;;;11.90;86.30;;;;;;2072547;28;20699;-70
2021/04/21 05:18:20;;;;;;;27.77;20.48;;;12.10;85.10;;;;;;2069580;28;20141;-73
2021/04/21 05:20:05;;;;;;;30.90;21.15;;;12.30;83.40;;;;;;2072803;28;20030;-73
2021/04/21 05:21:46;;;;;;;26.05;19.95;;;12.60;82.10;;;;;;2073351;28;20036;-70
2021/04/21 05:23:28;;;;;;;24.90;19.58;;;12.80;80.10;;;;;;2077388;28;20567;-70
2021/04/21 05:24:35;;;;;;;27.08;19.33;;;13.00;78.60;;;;;;2074742;28;20049;-72
2021/04/21 05:26:22;;;;;;;26.77;19.52;;;13.00;78.00;;;;;;2069846;28;20041;-72
2021/04/21 05:27:42;;;;;;;24.60;18.92;;;13.00;77.30;;;;;;2066289;28;20018;-70
2021/04/21 05:29:07;;;;;;;25.52;19.15;;;12.90;77.80;;;;;;2072426;28;20062;-71
2021/04/21 05:30:26;;;;;;;25.30;18.48;;;12.80;78.30;;;;;;2072194;28;20367;-71
2021/04/21 05:32:05;;;;;;;26.33;18.77;;;12.80;78.80;;;;;;2072370;28;20030;-71
2021/04/21 05:33:23;;;;;;;23.60;18.55;;;13.00;78.50;;;;;;2072306;28;20033;-71
2021/04/21 05:35:11;;;;;;;26.48;17.90;;;13.10;77.90;;;;;;2072320;28;20117;-71
2021/04/21 05:36:42;;;;;;;27.52;18.92;;;13.40;76.20;;;;;;2072125;28;20062;-71
2021/04/21 05:38:21;;;;;;;27.17;18.95;;;13.70;75.10;;;;;;2072212;28;20038;-71
2021/04/21 05:39:55;;;;;;;27.58;19.23;;;13.90;73.80;;;;;;2072330;28;20060;-71
2021/04/21 05:41:18;;;;;;;26.60;19.13;;;14.10;72.60;;;;;;2072366;28;20034;-71
2021/04/21 05:42:51;;;;;;;26.60;19.85;;;14.10;72.00;;;;;;2072410;28;20037;-70
2021/04/21 05:44:10;;;;;;;25.38;18.83;;;14.10;71.50;;;;;;2044503;29;20043;-70
2021/04/21 05:45:51;;;;;;;24.83;18.52;;;13.90;71.90;;;;;;2064920;28;20035;-72
2021/04/21 05:47:11;;;;;;;;;;;13.60;73.30;;;;;;2070169;28;20034;-70
2021/04/21 05:48:33;;;;;;;28.45;19.30;;;13.20;74.10;;;;;;2064578;28;20348;-70
2021/04/21 05:50:11;;;;;;;28.77;20.55;;;12.90;75.30;;;;;;2071730;28;20026;-70
2021/04/21 05:51:50;;;;;;;27.05;20.23;;;12.50;77.20;;;;;;2063799;28;20109;-70
2021/04/21 05:53:32;;;;;;;27.65;20.63;;;12.20;78.90;;;;;;2074502;28;20095;-71
2021/04/21 05:54:51;;;;;;;;;;;11.90;80.60;;;;;;2070335;28;20037;-70
2021/04/21 05:56:14;;;;;;;31.98;22.38;;;11.80;81.90;;;;;;2069084;28;19909;-71
2021/04/21 05:57:54;;;;;;;27.67;20.75;;;11.70;83.20;;;;;;2074857;28;20025;-72
2021/04/21 05:59:20;;;;;;;31.35;21.67;;;11.50;84.40;;;;;;2074725;28;20543;-72
2021/04/21 06:00:38;;;;;;;29.52;22.38;;;11.40;85.20;;;;;;2071399;28;20025;-72
2021/04/21 06:01:47;;;;;;;27.90;20.33;;;11.30;85.00;;;;;;2063954;28;20038;-72